Time;durP1;ratioP1;P1;durP2;ratioP2;P2;SDS_P1;SDS_P2;PMS_P1;PMS_P2;Temp;Humidity;BMP_temperature;BMP_pressure;BME280_temperature;BME280_humidity;BME280_pressure;Samples;Min_cycle;Max_cycle;Signal;HPM_P1;HPM_P2
2022/05/19 00:01:38;;;;;;;7.88;3.00;;;;;;;;;;5016342;28;20087;-42
2022/05/19 00:04:04;;;;;;;7.70;2.22;;;;;;;;;;5016245;28;20029;-43
2022/05/19 00:06:29;;;;;;;6.18;2.63;;;;;;;;;;5036996;28;20114;-42
2022/05/19 00:08:54;;;;;;;7.50;2.95;;;;;;;;;;5054063;28;20032;-42
2022/05/19 00:11:21;;;;;;;8.32;3.47;;;;;;;;;;5054190;28;20481;-41
2022/05/19 00:13:46;;;;;;;10.07;2.55;;;;;;;;;;5053747;28;20025;-43
2022/05/19 00:16:11;;;;;;;18.25;3.17;;;;;;;;;;5053865;28;20371;-40
2022/05/19 00:18:37;;;;;;;10.35;3.53;;;;;;;;;;5053543;28;20075;-42
2022/05/19 00:21:02;;;;;;;9.65;3.20;;;;;;;;;;5053665;28;20021;-42
2022/05/19 00:23:28;;;;;;;7.18;3.08;;;;;;;;;;5035738;28;20025;-41
2022/05/19 00:25:53;;;;;;;6.97;2.67;;;;;;;;;;5035895;28;20032;-42
2022/05/19 00:28:18;;;;;;;6.70;2.78;;;;;;;;;;5035613;28;20456;-39
2022/05/19 00:30:44;;;;;;;8.30;2.80;;;;;;;;;;5053457;28;20494;-41
2022/05/19 00:33:10;;;;;;;6.40;3.10;;;;;;;;;;5053458;28;20079;-42
2022/05/19 00:35:37;;;;;;;5.25;2.60;;;;;;;;;;5034182;28;20032;-42
2022/05/19 00:38:02;;;;;;;9.18;2.90;;;;;;;;;;5053494;28;20029;-41
2022/05/19 00:40:27;;;;;;;6.85;3.00;;;;;;;;;;5053054;28;20482;-41
2022/05/19 00:42:53;;;;;;;9.48;2.95;;;;;;;;;;5053493;28;20028;-41
2022/05/19 00:45:21;;;;;;;8.95;2.92;;;;;;;;;;5035339;28;20055;-43
2022/05/19 00:48:02;;;;;;;17.67;4.05;;;;;;;;;;5053233;28;20043;-43
2022/05/19 00:50:46;;;;;;;8.05;3.53;;;;;;;;;;5053026;28;20563;-42
2022/05/19 00:53:20;;;;;;;9.48;2.78;;;;;;;;;;5035140;28;20047;-41
2022/05/19 00:55:47;;;;;;;8.63;2.67;;;;;;;;;;5052920;28;20029;-43
2022/05/19 00:58:15;;;;;;;4.72;3.08;;;;;;;;;;5035688;28;20013;-42
2022/05/19 01:00:41;;;;;;;9.93;2.50;;;;;;;;;;5052699;28;20511;-39
2022/05/19 01:03:07;;;;;;;8.93;3.28;;;;;;;;;;5035231;28;20025;-43
2022/05/19 01:05:41;;;;;;;5.60;2.53;;;;;;;;;;5052395;28;20021;-41
2022/05/19 01:08:12;;;;;;;9.38;3.05;;;;;;;;;;5053058;28;20025;-42
2022/05/19 01:10:38;;;;;;;7.93;2.60;;;;;;;;;;5052656;28;20032;-40
2022/05/19 01:13:04;;;;;;;5.70;2.53;;;;;;;;;;5052582;28;20036;-43
2022/05/19 01:15:32;;;;;;;8.13;2.95;;;;;;;;;;5034960;28;20107;-43
2022/05/19 01:17:59;;;;;;;7.88;2.47;;;;;;;;;;5052835;28;20025;-43
2022/05/19 01:20:25;;;;;;;12.85;3.35;;;;;;;;;;5034853;28;20021;-41
2022/05/19 01:22:51;;;;;;;9.95;2.80;;;;;;;;;;5034970;28;20017;-41
2022/05/19 01:25:25;;;;;;;9.35;2.60;;;;;;;;;;5052491;28;20028;-42
2022/05/19 01:27:51;;;;;;;10.35;3.17;;;;;;;;;;5035005;28;20048;-43
2022/05/19 01:30:16;;;;;;;9.48;2.90;;;;;;;;;;5034832;28;20055;-43
2022/05/19 01:32:41;;;;;;;8.00;3.13;;;;;;;;;;5052621;28;20464;-43
2022/05/19 01:35:07;;;;;;;5.75;2.53;;;;;;;;;;5034489;28;20049;-41
2022/05/19 01:37:33;;;;;;;8.95;3.70;;;;;;;;;;5052572;28;20071;-42
2022/05/19 01:40:02;;;;;;;11.30;2.95;;;;;;;;;;5052636;28;20021;-43
2022/05/19 01:42:34;;;;;;;7.95;2.63;;;;;;;;;;5034849;28;20478;-39
2022/05/19 01:44:59;;;;;;;3.55;2.22;;;;;;;;;;5052464;28;20410;-41
2022/05/19 01:47:29;;;;;;;5.95;2.88;;;;;;;;;;5055557;28;20028;-43
2022/05/19 01:50:00;;;;;;;9.25;3.00;;;;;;;;;;5056281;28;20446;-42
2022/05/19 01:52:32;;;;;;;4.88;2.90;;;;;;;;;;5038392;28;20036;-42
2022/05/19 01:54:57;;;;;;;7.32;3.40;;;;;;;;;;5056124;28;20371;-42
2022/05/19 01:57:37;;;;;;;9.50;3.17;;;;;;;;;;5056608;28;20108;-42
2022/05/19 02:00:02;;;;;;;9.98;3.03;;;;;;;;;;5056199;28;20033;-43
2022/05/19 02:02:31;;;;;;;4.60;2.85;;;;;;;;;;5038560;28;20036;-42
2022/05/19 02:05:02;;;;;;;4.55;2.65;;;;;;;;;;5055911;28;20036;-40
2022/05/19 02:07:28;;;;;;;9.93;2.80;;;;;;;;;;5056368;28;20049;-43
2022/05/19 02:10:14;;;;;;;4.85;2.47;;;;;;;;;;5056167;28;20033;-42
2022/05/19 02:12:40;;;;;;;8.90;3.20;;;;;;;;;;5055501;28;20071;-43
2022/05/19 02:15:08;;;;;;;6.90;3.00;;;;;;;;;;5038152;28;20029;-42
2022/05/19 02:17:34;;;;;;;8.70;2.50;;;;;;;;;;5056173;28;20558;-40
2022/05/19 02:20:10;;;;;;;6.55;3.03;;;;;;;;;;5056188;28;20017;-42
2022/05/19 02:22:38;;;;;;;8.23;3.40;;;;;;;;;;5056018;28;20039;-43
2022/05/19 02:25:11;;;;;;;7.00;2.78;;;;;;;;;;5037929;28;20028;-43
2022/05/19 02:27:49;;;;;;;10.98;3.58;;;;;;;;;;5056281;28;20024;-41
2022/05/19 02:30:18;;;;;;;5.32;2.90;;;;;;;;;;5037678;28;20028;-40
2022/05/19 02:32:44;;;;;;;8.02;2.70;;;;;;;;;;5020484;28;20064;-43
2022/05/19 02:35:11;;;;;;;18.00;2.88;;;;;;;;;;5036005;28;20118;-43
2022/05/19 02:37:36;;;;;;;7.93;2.65;;;;;;;;;;5035740;28;20375;-43
2022/05/19 02:40:03;;;;;;;9.25;3.08;;;;;;;;;;5035696;28;20021;-42
2022/05/19 02:42:28;;;;;;;8.45;3.05;;;;;;;;;;5035452;28;20049;-42
2022/05/19 02:44:54;;;;;;;6.43;2.70;;;;;;;;;;5017774;28;20485;-42
2022/05/19 02:47:19;;;;;;;8.13;2.85;;;;;;;;;;5017842;28;20366;-40
2022/05/19 02:49:44;;;;;;;4.05;2.28;;;;;;;;;;5035540;28;20021;-41
2022/05/19 02:52:10;;;;;;;5.85;2.38;;;;;;;;;;5017347;28;20138;-41
2022/05/19 02:54:35;;;;;;;6.38;3.00;;;;;;;;;;5035410;28;20026;-43
2022/05/19 02:57:00;;;;;;;6.63;3.45;;;;;;;;;;5035165;28;20045;-42
2022/05/19 02:59:26;;;;;;;8.43;3.20;;;;;;;;;;5016479;28;20029;-43
2022/05/19 03:01:51;;;;;;;18.42;3.72;;;;;;;;;;5035228;28;20022;-41
2022/05/19 03:04:16;;;;;;;7.35;3.42;;;;;;;;;;5036804;28;20021;-41
2022/05/19 03:06:42;;;;;;;15.90;3.45;;;;;;;;;;5037206;28;20408;-42
2022/05/19 03:09:08;;;;;;;7.40;3.15;;;;;;;;;;5054822;28;20571;-42
2022/05/19 03:11:34;;;;;;;6.75;3.15;;;;;;;;;;5054580;28;20032;-43
2022/05/19 03:13:59;;;;;;;8.55;2.97;;;;;;;;;;5054903;28;20025;-42
2022/05/19 03:16:24;;;;;;;5.63;2.90;;;;;;;;;;5037003;28;20031;-43
2022/05/19 03:18:50;;;;;;;6.13;3.15;;;;;;;;;;5037186;28;20044;-43
2022/05/19 03:21:15;;;;;;;10.10;2.78;;;;;;;;;;5037051;28;20025;-42
2022/05/19 03:23:40;;;;;;;7.30;3.25;;;;;;;;;;5054749;28;20051;-40
2022/05/19 03:26:06;;;;;;;3.80;2.53;;;;;;;;;;5054692;28;20533;-43
2022/05/19 03:28:31;;;;;;;11.52;2.88;;;;;;;;;;5054510;28;20053;-43
2022/05/19 03:30:56;;;;;;;7.18;2.78;;;;;;;;;;5036797;28;20062;-42
2022/05/19 03:33:21;;;;;;;7.80;2.60;;;;;;;;;;5054515;28;20040;-43
2022/05/19 03:35:55;;;;;;;8.25;2.97;;;;;;;;;;5036736;28;20082;-42
2022/05/19 03:38:20;;;;;;;7.35;2.75;;;;;;;;;;5054463;28;20056;-42
2022/05/19 03:40:46;;;;;;;5.85;3.65;;;;;;;;;;5054596;28;20067;-46
2022/05/19 03:43:11;;;;;;;6.88;2.20;;;;;;;;;;5036345;28;20025;-41
2022/05/19 03:45:36;;;;;;;5.63;3.03;;;;;;;;;;5054649;28;20032;-42
2022/05/19 03:48:02;;;;;;;6.90;3.53;;;;;;;;;;5036307;28;20028;-43
2022/05/19 03:50:27;;;;;;;4.88;2.28;;;;;;;;;;5036511;28;20079;-43
2022/05/19 03:52:52;;;;;;;5.40;3.35;;;;;;;;;;5054080;28;20029;-41
2022/05/19 03:55:18;;;;;;;7.20;2.63;;;;;;;;;;5054124;28;20375;-43
2022/05/19 03:57:43;;;;;;;5.75;2.80;;;;;;;;;;5035892;28;20024;-42
2022/05/19 04:00:09;;;;;;;4.75;2.63;;;;;;;;;;5054537;28;20021;-39
2022/05/19 04:02:34;;;;;;;5.07;2.88;;;;;;;;;;5053872;28;20071;-43
2022/05/19 04:05:00;;;;;;;5.15;3.03;;;;;;;;;;5036288;28;20025;-41
2022/05/19 04:07:25;;;;;;;5.75;2.63;;;;;;;;;;5035756;28;20056;-42
2022/05/19 04:09:50;;;;;;;12.57;2.88;;;;;;;;;;5047192;28;20381;-41
2022/05/19 04:12:20;;;;;;;9.23;2.63;;;;;;;;;;5015668;28;20056;-43
2022/05/19 04:14:45;;;;;;;5.55;2.83;;;;;;;;;;5034113;28;20021;-43
2022/05/19 04:17:12;;;;;;;7.03;3.40;;;;;;;;;;5033742;28;20054;-41
2022/05/19 04:19:37;;;;;;;5.35;2.70;;;;;;;;;;5033881;28;20021;-41
2022/05/19 04:22:02;;;;;;;6.72;2.55;;;;;;;;;;5015960;28;20593;-40
2022/05/19 04:24:28;;;;;;;10.52;4.53;;;;;;;;;;5015901;28;20056;-42
2022/05/19 04:26:53;;;;;;;7.03;2.78;;;;;;;;;;5033397;28;20068;-43
2022/05/19 04:29:18;;;;;;;4.78;2.53;;;;;;;;;;5033732;28;20021;-43
2022/05/19 04:31:44;;;;;;;10.82;3.00;;;;;;;;;;5033402;28;20080;-43
2022/05/19 04:34:09;;;;;;;25.33;4.63;;;;;;;;;;5033580;28;20483;-41
2022/05/19 04:36:34;;;;;;;12.73;5.10;;;;;;;;;;5015749;28;20528;-42
2022/05/19 04:38:59;;;;;;;8.52;2.88;;;;;;;;;;5015596;28;20092;-41
2022/05/19 04:41:25;;;;;;;7.05;2.85;;;;;;;;;;5015573;28;20031;-42
2022/05/19 04:43:51;;;;;;;9.00;3.10;;;;;;;;;;5033508;28;20365;-40
2022/05/19 04:46:16;;;;;;;10.80;3.83;;;;;;;;;;5020089;28;20059;-41
2022/05/19 04:48:42;;;;;;;13.48;3.58;;;;;;;;;;5053081;28;20477;-41
2022/05/19 04:51:07;;;;;;;7.22;3.25;;;;;;;;;;5053322;28;20032;-42
2022/05/19 04:53:33;;;;;;;5.78;2.92;;;;;;;;;;5052831;28;20123;-40
2022/05/19 04:55:58;;;;;;;10.27;3.75;;;;;;;;;;5052974;28;20053;-40
2022/05/19 04:58:23;;;;;;;9.10;2.90;;;;;;;;;;5035116;28;20036;-36
2022/05/19 05:00:50;;;;;;;7.60;2.40;;;;;;;;;;5035061;28;20017;-39
2022/05/19 05:03:15;;;;;;;4.78;2.80;;;;;;;;;;5035054;28;20020;-43
2022/05/19 05:05:41;;;;;;;8.52;2.95;;;;;;;;;;5052881;28;20455;-40
2022/05/19 05:08:06;;;;;;;7.55;2.88;;;;;;;;;;5034795;28;20037;-41
2022/05/19 05:10:31;;;;;;;12.75;2.58;;;;;;;;;;5034745;28;20116;-40
2022/05/19 05:13:03;;;;;;;5.65;2.70;;;;;;;;;;5052522;28;20489;-41
2022/05/19 05:15:28;;;;;;;9.43;2.80;;;;;;;;;;5053023;28;20083;-41
2022/05/19 05:17:53;;;;;;;7.77;2.37;;;;;;;;;;5053015;28;20028;-42
2022/05/19 05:20:18;;;;;;;12.57;2.80;;;;;;;;;;5052982;28;20250;-43
2022/05/19 05:22:44;;;;;;;14.18;3.15;;;;;;;;;;5034366;28;20303;-43
2022/05/19 05:25:13;;;;;;;18.88;3.40;;;;;;;;;;5052454;28;20021;-42
2022/05/19 05:27:39;;;;;;;16.80;2.63;;;;;;;;;;5034780;28;20446;-39
2022/05/19 05:30:04;;;;;;;15.00;3.95;;;;;;;;;;5052869;28;20065;-43
2022/05/19 05:32:30;;;;;;;14.95;3.78;;;;;;;;;;5034583;28;20514;-43
2022/05/19 05:34:55;;;;;;;13.10;3.08;;;;;;;;;;5052736;28;20028;-40
2022/05/19 05:37:21;;;;;;;11.48;3.05;;;;;;;;;;5052512;28;20049;-43
2022/05/19 05:39:46;;;;;;;9.60;1.65;;;;;;;;;;5051995;28;20463;-42
2022/05/19 05:42:11;;;;;;;9.57;1.60;;;;;;;;;;5048252;28;20524;-44
2022/05/19 05:44:37;;;;;;;10.43;1.50;;;;;;;;;;5037455;28;20068;-43
2022/05/19 05:47:02;;;;;;;14.32;1.50;;;;;;;;;;5034478;28;20024;-43
2022/05/19 05:49:27;;;;;;;28.48;2.58;;;;;;;;;;5033397;28;20045;-41
2022/05/19 05:51:53;;;;;;;4.53;0.95;;;;;;;;;;5036393;28;20040;-42
2022/05/19 05:54:18;;;;;;;7.35;1.52;;;;;;;;;;5026599;28;20464;-43
2022/05/19 05:56:43;;;;;;;15.02;2.20;;;;;;;;;;5041801;28;20040;-40
2022/05/19 05:59:09;;;;;;;15.20;1.83;;;;;;;;;;5042760;28;20074;-42
2022/05/19 06:01:34;;;;;;;2.05;0.93;;;;;;;;;;5031290;28;20059;-44
2022/05/19 06:04:01;;;;;;;11.27;1.95;;;;;;;;;;5045839;28;20120;-43
2022/05/19 06:06:27;;;;;;;7.32;1.20;;;;;;;;;;5046407;28;20064;-44
2022/05/19 06:08:52;;;;;;;4.55;1.60;;;;;;;;;;5026015;28;20021;-45
2022/05/19 06:11:17;;;;;;;13.27;2.53;;;;;;;;;;5043245;28;20499;-43
2022/05/19 06:13:43;;;;;;;9.48;2.47;;;;;;;;;;5031165;28;20080;-43
2022/05/19 06:16:08;;;;;;;15.65;2.15;;;;;;;;;;5031647;28;20020;-43
2022/05/19 06:18:34;;;;;;;55.55;4.18;;;;;;;;;;5033411;28;20498;-43
2022/05/19 06:20:59;;;;;;;29.08;4.07;;;;;;;;;;5047799;28;20104;-44
2022/05/19 06:23:24;;;;;;;34.83;3.65;;;;;;;;;;5047189;28;20075;-44
2022/05/19 06:25:50;;;;;;;14.00;2.67;;;;;;;;;;5045649;28;20025;-43
2022/05/19 06:28:15;;;;;;;8.18;1.92;;;;;;;;;;5028949;28;20400;-44
2022/05/19 06:30:41;;;;;;;12.00;1.90;;;;;;;;;;5048876;28;20040;-43
2022/05/19 06:33:06;;;;;;;7.90;2.60;;;;;;;;;;5033395;28;20075;-44
2022/05/19 06:35:33;;;;;;;10.80;2.35;;;;;;;;;;5052145;28;20021;-45
2022/05/19 06:37:59;;;;;;;25.73;4.55;;;;;;;;;;5050219;28;20024;-46
2022/05/19 06:40:24;;;;;;;8.80;3.03;;;;;;;;;;5051423;28;20430;-44
2022/05/19 06:42:50;;;;;;;15.98;3.90;;;;;;;;;;5035750;28;20028;-44
2022/05/19 06:45:17;;;;;;;15.00;3.72;;;;;;;;;;5033974;28;20033;-44
2022/05/19 06:47:43;;;;;;;22.55;5.65;;;;;;;;;;5043412;28;20060;-44
2022/05/19 06:50:09;;;;;;;5.75;2.67;;;;;;;;;;5059196;28;20111;-43
2022/05/19 06:52:41;;;;;;;6.32;2.38;;;;;;;;;;5048561;28;20029;-47
2022/05/19 06:55:07;;;;;;;17.92;2.30;;;;;;;;;;5033946;28;20124;-43
2022/05/19 06:57:32;;;;;;;12.48;2.97;;;;;;;;;;5049589;28;20095;-43
2022/05/19 06:59:57;;;;;;;6.50;1.75;;;;;;;;;;5033408;28;20022;-44
2022/05/19 07:02:24;;;;;;;7.75;2.95;;;;;;;;;;5047313;28;20021;-47
2022/05/19 07:04:49;;;;;;;3.40;1.75;;;;;;;;;;5035213;28;20025;-43
2022/05/19 07:07:14;;;;;;;6.35;1.70;;;;;;;;;;5047227;28;20087;-43
2022/05/19 07:09:40;;;;;;;10.20;1.63;;;;;;;;;;5055679;28;20555;-43
2022/05/19 07:12:07;;;;;;;4.97;1.63;;;;;;;;;;5047241;28;20045;-44
2022/05/19 07:14:33;;;;;;;6.88;1.40;;;;;;;;;;5045479;28;20418;-44
2022/05/19 07:16:58;;;;;;;3.58;1.23;;;;;;;;;;5053877;28;20159;-43
2022/05/19 07:22:13;;;;;;;7.35;1.48;;;;;;;;;;5053952;28;20100;-43
2022/05/19 07:24:38;;;;;;;5.22;1.27;;;;;;;;;;5035898;28;20021;-44
2022/05/19 07:27:04;;;;;;;4.22;1.20;;;;;;;;;;5036057;28;20017;-43
2022/05/19 07:29:29;;;;;;;7.88;1.45;;;;;;;;;;5053554;28;20098;-43
2022/05/19 07:32:00;;;;;;;3.47;1.53;;;;;;;;;;5051941;28;20032;-44
2022/05/19 07:34:26;;;;;;;2.58;1.35;;;;;;;;;;5034952;28;20736;-43
2022/05/19 07:36:52;;;;;;;5.22;1.15;;;;;;;;;;5048450;28;20027;-44
2022/05/19 07:39:17;;;;;;;6.72;1.35;;;;;;;;;;5051536;28;20114;-43
2022/05/19 07:41:42;;;;;;;7.15;1.33;;;;;;;;;;5038156;28;20025;-45
2022/05/19 07:44:08;;;;;;;2.88;0.85;;;;;;;;;;5052776;28;20040;-43
2022/05/19 07:46:35;;;;;;;6.82;1.33;;;;;;;;;;5050568;28;20042;-43
2022/05/19 07:49:00;;;;;;;2.05;0.70;;;;;;;;;;5050152;28;20019;-44
2022/05/19 07:51:27;;;;;;;3.13;0.80;;;;;;;;;;5049241;28;20032;-45
2022/05/19 07:53:53;;;;;;;3.00;1.02;;;;;;;;;;5034563;28;20037;-46
2022/05/19 07:56:18;;;;;;;7.10;1.30;;;;;;;;;;5051708;28;20499;-43
2022/05/19 07:58:46;;;;;;;6.60;0.90;;;;;;;;;;5032644;28;20036;-45
2022/05/19 08:01:12;;;;;;;11.27;1.27;;;;;;;;;;5032089;28;20068;-46
2022/05/19 08:03:37;;;;;;;5.80;1.00;;;;;;;;;;5033931;28;20027;-44
2022/05/19 08:06:04;;;;;;;2.88;0.88;;;;;;;;;;5032449;28;20052;-47
2022/05/19 08:08:29;;;;;;;1.95;0.88;;;;;;;;;;5050827;28;20017;-43
2022/05/19 08:10:57;;;;;;;1.90;0.80;;;;;;;;;;5036561;28;20740;-45
2022/05/19 08:16:06;;;;;;;6.30;1.02;;;;;;;;;;5056729;28;20094;-42
2022/05/19 08:18:31;;;;;;;1.30;0.80;;;;;;;;;;5033704;28;20040;-44
2022/05/19 08:20:58;;;;;;;7.95;1.00;;;;;;;;;;5033363;28;20419;-43
2022/05/19 08:23:25;;;;;;;7.82;1.30;;;;;;;;;;5052858;28;20013;-44
2022/05/19 08:25:50;;;;;;;10.73;1.63;;;;;;;;;;5029984;28;20017;-43
2022/05/19 08:28:17;;;;;;;4.32;0.90;;;;;;;;;;5041333;28;20029;-43
2022/05/19 08:30:47;;;;;;;3.65;1.00;;;;;;;;;;5049570;28;20078;-47
2022/05/19 08:33:13;;;;;;;8.18;1.17;;;;;;;;;;5034892;28;20033;-46
2022/05/19 08:35:38;;;;;;;4.28;1.20;;;;;;;;;;5049063;28;20104;-45
2022/05/19 08:38:04;;;;;;;3.13;0.90;;;;;;;;;;5027565;28;20025;-43
2022/05/19 08:40:29;;;;;;;6.57;1.00;;;;;;;;;;5043477;28;20055;-43
2022/05/19 08:42:57;;;;;;;3.70;0.80;;;;;;;;;;5051520;28;20021;-44
2022/05/19 08:45:27;;;;;;;4.55;0.70;;;;;;;;;;5043123;28;20082;-43
2022/05/19 08:47:58;;;;;;;3.40;0.82;;;;;;;;;;5025606;28;20091;-43
2022/05/19 08:50:28;;;;;;;3.95;1.00;;;;;;;;;;5026994;28;20044;-45
2022/05/19 08:52:54;;;;;;;6.22;1.17;;;;;;;;;;5047232;28;20112;-43
2022/05/19 08:55:19;;;;;;;1.50;0.93;;;;;;;;;;5044699;28;20166;-43
2022/05/19 08:57:54;;;;;;;3.58;1.08;;;;;;;;;;5022312;28;20017;-43
2022/05/19 09:00:26;;;;;;;2.28;0.98;;;;;;;;;;5045029;28;20024;-42
2022/05/19 09:02:54;;;;;;;2.85;0.85;;;;;;;;;;5041406;28;20024;-43
2022/05/19 09:05:38;;;;;;;2.00;0.80;;;;;;;;;;5030220;28;20457;-43
2022/05/19 09:08:03;;;;;;;1.98;0.70;;;;;;;;;;5020255;28;20472;-46
2022/05/19 09:10:38;;;;;;;4.13;1.20;;;;;;;;;;5027556;28;20028;-36
2022/05/19 09:13:22;;;;;;;2.67;1.10;;;;;;;;;;5006419;28;20357;-45
2022/05/19 09:15:48;;;;;;;1.70;1.02;;;;;;;;;;5030459;28;20507;-41
2022/05/19 09:18:15;;;;;;;4.13;1.00;;;;;;;;;;5030832;28;20025;-43
2022/05/19 09:20:42;;;;;;;1.52;0.75;;;;;;;;;;5031339;28;20017;-42
2022/05/19 09:23:08;;;;;;;3.30;0.80;;;;;;;;;;5030757;28;20052;-39
2022/05/19 09:25:36;;;;;;;7.33;0.90;;;;;;;;;;5031087;28;20041;-44
2022/05/19 09:28:01;;;;;;;11.32;1.05;;;;;;;;;;5028519;28;20295;-41
2022/05/19 09:30:29;;;;;;;13.98;1.15;;;;;;;;;;5029746;28;20045;-42
2022/05/19 09:32:56;;;;;;;13.20;1.45;;;;;;;;;;5029284;28;20090;-43
2022/05/19 09:35:27;;;;;;;13.18;1.80;;;;;;;;;;5030528;28;20037;-41
2022/05/19 09:38:07;;;;;;;3.45;1.10;;;;;;;;;;5030878;28;20049;-43
2022/05/19 09:40:35;;;;;;;2.13;0.60;;;;;;;;;;5030850;28;20025;-43
2022/05/19 09:43:08;;;;;;;6.95;0.88;;;;;;;;;;5031753;28;20017;-43
2022/05/19 09:45:38;;;;;;;4.38;0.70;;;;;;;;;;5030179;28;20026;-43
2022/05/19 09:48:05;;;;;;;7.57;1.05;;;;;;;;;;5024364;28;20052;-43
2022/05/19 09:50:32;;;;;;;1.90;0.90;;;;;;;;;;5025452;28;20037;-42
2022/05/19 09:53:02;;;;;;;7.70;0.90;;;;;;;;;;5026584;28;20033;-42
2022/05/19 09:55:27;;;;;;;5.18;0.82;;;;;;;;;;5031440;28;20028;-42
2022/05/19 09:57:58;;;;;;;2.58;0.80;;;;;;;;;;5025448;28;20026;-46
2022/05/19 10:00:26;;;;;;;1.95;0.80;;;;;;;;;;5029989;28;20017;-46
2022/05/19 10:02:55;;;;;;;5.60;0.60;;;;;;;;;;5030017;28;20049;-44
2022/05/19 10:05:25;;;;;;;1.58;0.82;;;;;;;;;;5031574;28;20025;-43
2022/05/19 10:07:54;;;;;;;2.58;0.80;;;;;;;;;;5045989;28;20087;-43
2022/05/19 10:10:23;;;;;;;2.60;0.73;;;;;;;;;;5049067;28;20065;-43
2022/05/19 10:12:49;;;;;;;6.38;0.68;;;;;;;;;;5051559;28;20409;-46
2022/05/19 10:15:15;;;;;;;1.52;0.57;;;;;;;;;;5055687;28;20021;-44
2022/05/19 10:18:15;;;;;;;0.70;0.60;;;;;;;;;;5036675;28;20047;-43
2022/05/19 10:20:45;;;;;;;1.73;0.65;;;;;;;;;;5046927;28;20108;-43
2022/05/19 10:23:14;;;;;;;2.95;0.95;;;;;;;;;;5036617;28;20024;-43
2022/05/19 10:25:42;;;;;;;5.95;0.82;;;;;;;;;;5052495;28;20021;-44
2022/05/19 10:31:18;;;;;;;3.17;0.60;;;;;;;;;;5050690;28;20090;-44
2022/05/19 10:33:43;;;;;;;1.23;0.75;;;;;;;;;;5054778;28;20041;-44
2022/05/19 10:36:14;;;;;;;2.47;0.70;;;;;;;;;;5034874;28;20052;-44
2022/05/19 10:39:06;;;;;;;4.03;0.80;;;;;;;;;;5048737;28;20036;-44
2022/05/19 10:41:57;;;;;;;2.05;0.75;;;;;;;;;;5050751;28;20037;-44
2022/05/19 10:44:25;;;;;;;9.85;1.17;;;;;;;;;;4996769;28;20395;-41
2022/05/19 10:46:54;;;;;;;2.28;0.77;;;;;;;;;;5035267;28;20039;-43
2022/05/19 10:49:24;;;;;;;6.68;1.20;;;;;;;;;;5053421;28;20036;-44
2022/05/19 10:52:04;;;;;;;3.53;0.85;;;;;;;;;;5048761;28;20091;-44
2022/05/19 10:54:36;;;;;;;6.05;1.02;;;;;;;;;;5030772;28;20376;-44
2022/05/19 10:57:01;;;;;;;1.77;0.80;;;;;;;;;;5050185;28;20446;-45
2022/05/19 10:59:45;;;;;;;1.33;0.70;;;;;;;;;;5051158;28;20109;-47
2022/05/19 11:02:29;;;;;;;5.30;1.00;;;;;;;;;;5052188;28;20053;-44
2022/05/19 11:05:00;;;;;;;9.13;1.38;;;;;;;;;;5050546;28;20052;-43
2022/05/19 11:07:29;;;;;;;1.42;0.80;;;;;;;;;;5045929;28;20067;-46
2022/05/19 11:10:13;;;;;;;4.55;0.73;;;;;;;;;;5047524;28;20032;-43
2022/05/19 11:12:54;;;;;;;2.45;0.90;;;;;;;;;;5045521;28;20042;-43
2022/05/19 11:15:31;;;;;;;27.30;2.10;;;;;;;;;;5048773;28;20569;-44
2022/05/19 11:18:01;;;;;;;12.40;1.80;;;;;;;;;;5053570;28;20067;-43
2022/05/19 11:20:29;;;;;;;0.88;0.88;;;;;;;;;;5051410;28;20115;-44
2022/05/19 11:22:59;;;;;;;70.70;3.73;;;;;;;;;;5033964;28;20024;-43
2022/05/19 11:28:28;;;;;;;1.33;0.70;;;;;;;;;;5050080;28;20079;-44
2022/05/19 11:31:00;;;;;;;6.32;0.80;;;;;;;;;;5029389;28;20105;-44
2022/05/19 11:36:22;;;;;;;12.47;1.20;;;;;;;;;;5053992;28;20060;-44
2022/05/19 11:38:50;;;;;;;3.08;0.73;;;;;;;;;;5032133;28;20017;-43
2022/05/19 11:41:24;;;;;;;24.13;1.80;;;;;;;;;;5034584;28;20024;-45
2022/05/19 11:44:01;;;;;;;4.40;1.00;;;;;;;;;;5050577;28;20033;-43
2022/05/19 11:46:32;;;;;;;2.10;0.90;;;;;;;;;;5049809;28;20039;-48
2022/05/19 11:57:41;;;;;;;6.20;1.05;;;;;;;;;;5050089;28;20036;-43
2022/05/19 12:00:07;;;;;;;1.98;1.45;;;;;;;;;;5049174;28;20035;-43
2022/05/19 12:02:47;;;;;;;3.78;1.23;;;;;;;;;;5050218;28;20021;-43
2022/05/19 12:05:14;;;;;;;8.65;1.92;;;;;;;;;;5052906;28;20029;-44
2022/05/19 12:07:59;;;;;;;12.73;1.65;;;;;;;;;;5050712;28;20063;-44
2022/05/19 12:10:30;;;;;;;3.90;0.80;;;;;;;;;;5045917;28;20037;-43
2022/05/19 12:12:59;;;;;;;6.55;1.52;;;;;;;;;;5051323;28;20040;-43
2022/05/19 12:15:24;;;;;;;;;;;;;;;;;;5051069;28;20017;-44
2022/05/19 12:18:01;;;;;;;1.43;1.10;;;;;;;;;;5033096;28;19915;-45
2022/05/19 12:20:35;;;;;;;2.00;1.00;;;;;;;;;;5049929;28;20066;-47
2022/05/19 12:23:24;;;;;;;4.15;1.00;;;;;;;;;;5041405;28;20491;-44
2022/05/19 12:25:52;;;;;;;1.45;0.90;;;;;;;;;;5051701;28;20091;-43
2022/05/19 12:28:20;;;;;;;1.73;1.55;;;;;;;;;;5049236;28;20104;-44
2022/05/19 12:33:58;;;;;;;5.90;1.27;;;;;;;;;;5052703;28;20075;-44
2022/05/19 12:36:26;;;;;;;12.75;1.35;;;;;;;;;;5052524;28;20029;-45
2022/05/19 12:38:52;;;;;;;4.10;0.90;;;;;;;;;;5034607;28;20024;-45
2022/05/19 12:41:24;;;;;;;5.07;1.10;;;;;;;;;;5052382;28;20116;-43
2022/05/19 12:43:51;;;;;;;2.90;1.05;;;;;;;;;;5048066;28;20454;-43
2022/05/19 12:46:38;;;;;;;3.72;1.60;;;;;;;;;;5033854;28;20024;-43
2022/05/19 12:49:16;;;;;;;0.68;0.68;;;;;;;;;;5050853;28;20395;-44
2022/05/19 12:52:02;;;;;;;15.77;2.30;;;;;;;;;;5049239;28;20116;-43
2022/05/19 12:54:30;;;;;;;1.75;0.93;;;;;;;;;;5051226;28;20035;-43
2022/05/19 12:56:56;;;;;;;1.88;1.30;;;;;;;;;;5049333;28;20036;-47
2022/05/19 12:59:31;;;;;;;4.10;0.70;;;;;;;;;;5047820;28;20032;-44
2022/05/19 13:01:58;;;;;;;8.27;2.45;;;;;;;;;;5040294;28;20103;-43
2022/05/19 13:04:26;;;;;;;0.70;0.70;;;;;;;;;;5049074;28;20102;-48
2022/05/19 13:06:54;;;;;;;13.27;1.63;;;;;;;;;;5029419;28;20057;-41
2022/05/19 13:09:21;;;;;;;4.13;1.02;;;;;;;;;;5016947;28;20029;-45
2022/05/19 13:11:52;;;;;;;19.98;2.03;;;;;;;;;;5031842;28;20025;-44
2022/05/19 13:14:19;;;;;;;11.70;2.15;;;;;;;;;;5028914;28;20145;-44
2022/05/19 13:16:51;;;;;;;17.40;2.65;;;;;;;;;;5030374;28;20017;-44
2022/05/19 13:19:23;;;;;;;8.02;1.90;;;;;;;;;;5031561;28;20026;-44
2022/05/19 13:21:53;;;;;;;2.88;1.10;;;;;;;;;;5030668;28;20385;-45
2022/05/19 13:24:19;;;;;;;3.85;0.88;;;;;;;;;;5029711;28;20033;-43
2022/05/19 13:26:46;;;;;;;12.05;1.45;;;;;;;;;;5031193;28;20461;-44
2022/05/19 13:32:03;;;;;;;2.72;0.75;;;;;;;;;;5025251;28;20024;-44
2022/05/19 13:34:30;;;;;;;5.07;0.85;;;;;;;;;;5031988;28;20018;-43
2022/05/19 13:36:59;;;;;;;4.18;1.15;;;;;;;;;;5029635;28;20026;-44
2022/05/19 13:39:26;;;;;;;4.75;1.23;;;;;;;;;;5043676;28;20021;-43
2022/05/19 13:41:53;;;;;;;5.43;1.02;;;;;;;;;;5029375;28;20060;-44
2022/05/19 13:44:27;;;;;;;3.42;1.10;;;;;;;;;;5032007;28;20456;-43
2022/05/19 13:46:53;;;;;;;3.78;1.30;;;;;;;;;;5035347;28;20029;-43
2022/05/19 13:49:20;;;;;;;4.80;0.90;;;;;;;;;;5033191;28;20025;-44
2022/05/19 13:51:46;;;;;;;23.02;2.85;;;;;;;;;;5031645;28;20108;-44
2022/05/19 13:54:13;;;;;;;1.05;0.77;;;;;;;;;;5033406;28;20124;-44
2022/05/19 13:56:40;;;;;;;10.85;1.95;;;;;;;;;;5031707;28;20488;-44
2022/05/19 13:59:06;;;;;;;10.32;2.72;;;;;;;;;;5034384;28;20472;-44
2022/05/19 14:01:34;;;;;;;2.60;0.80;;;;;;;;;;5031144;28;20104;-44
2022/05/19 14:04:00;;;;;;;4.10;1.00;;;;;;;;;;5035241;28;20430;-46
2022/05/19 14:06:28;;;;;;;5.38;1.00;;;;;;;;;;5038569;28;20102;-43
2022/05/19 14:08:54;;;;;;;3.55;1.40;;;;;;;;;;5053729;28;20021;-43
2022/05/19 14:11:19;;;;;;;10.55;1.65;;;;;;;;;;5024813;28;20079;-44
2022/05/19 14:13:45;;;;;;;6.18;1.00;;;;;;;;;;5047535;28;20036;-43
2022/05/19 14:16:17;;;;;;;4.95;1.10;;;;;;;;;;5062031;28;20032;-43
2022/05/19 14:18:47;;;;;;;5.65;1.45;;;;;;;;;;5033795;28;20039;-42
2022/05/19 14:21:14;;;;;;;36.53;2.78;;;;;;;;;;5048826;28;20110;-43
2022/05/19 14:23:40;;;;;;;26.13;2.85;;;;;;;;;;5038119;28;20113;-44
2022/05/19 14:26:10;;;;;;;13.73;3.58;;;;;;;;;;5042190;28;20151;-43
2022/05/19 14:28:40;;;;;;;16.00;1.35;;;;;;;;;;5053704;28;20043;-40
2022/05/19 14:31:10;;;;;;;5.75;1.02;;;;;;;;;;5054137;28;20037;-41
2022/05/19 14:33:38;;;;;;;10.65;1.38;;;;;;;;;;5060091;28;20178;-42
2022/05/19 14:36:10;;;;;;;7.50;0.90;;;;;;;;;;5053580;28;20021;-43
2022/05/19 14:38:40;;;;;;;8.57;1.02;;;;;;;;;;5054430;28;20033;-44
2022/05/19 14:43:53;;;;;;;3.22;0.60;;;;;;;;;;5054511;28;20040;-43
2022/05/19 14:46:21;;;;;;;14.25;1.42;;;;;;;;;;5053709;28;20471;-43
2022/05/19 14:48:50;;;;;;;6.40;1.30;;;;;;;;;;5052726;28;20112;-44
2022/05/19 14:51:24;;;;;;;2.55;0.70;;;;;;;;;;5054083;28;20108;-40
2022/05/19 14:53:50;;;;;;;4.88;1.13;;;;;;;;;;5053174;28;20033;-43
2022/05/19 14:56:20;;;;;;;3.97;0.93;;;;;;;;;;5055055;28;20388;-43
2022/05/19 14:58:51;;;;;;;2.58;0.80;;;;;;;;;;5055386;28;20090;-40
2022/05/19 15:01:17;;;;;;;2.65;0.73;;;;;;;;;;5055301;28;20020;-41
2022/05/19 15:03:43;;;;;;;1.02;0.63;;;;;;;;;;5037310;28;20365;-43
2022/05/19 15:06:08;;;;;;;4.20;0.95;;;;;;;;;;5033964;28;20049;-42
2022/05/19 15:08:34;;;;;;;2.45;0.80;;;;;;;;;;5033887;28;20465;-40
2022/05/19 15:10:59;;;;;;;1.85;1.20;;;;;;;;;;5034082;28;20068;-42
2022/05/19 15:13:25;;;;;;;4.15;0.85;;;;;;;;;;5034951;28;20064;-42
2022/05/19 15:15:51;;;;;;;1.77;0.82;;;;;;;;;;5035264;28;20025;-43
2022/05/19 15:18:16;;;;;;;1.88;1.13;;;;;;;;;;5033662;28;20026;-42